Timiskaming Regional Airport
CYXR : now visible

Airfield :











YOU CAN JOIN US ON...

 
LOGIN :

Register | Disclaimer

   EN    FR    IT 

 









Legend :    VFR   Marginal VFR   IFR   Intensive IFR   Very Intensive IFR
Visi :
Ceiling :
>= 8 km
>= 3000ft
5 to 8 km
1000 to 3000 ft
1500m to 5 km
500 to 1000 ft
800 to 1500m
200 to 500 ft
< 800m
< 200 ft
Symbols :   Thunderstorms  Fog  Heavy snow  Heavy precipitations  Wind > 20 kt







- Airport Elevation : 798 ft
- IATA code : YXR


CYXR - Timiskaming Regional

CURRENT METAR :
  • 211500Z AUTO 13003KT 9SM OVC085 04/M01 A2995 RMK PRESRR SLP155

EXPIRED METARs :
  • 211400Z AUTO 31003KT 9SM BKN075 OVC120 06/M03 A2992 RMK SLP142
  • 211300Z AUTO 29004KT 9SM FEW080 OVC120 03/M02 A2989 RMK ICG PAST HR SLP133

TAF TAF CYXR
Valid from the 21 at 12:00 until the 22 at 00:00 UTC


211140Z 2112/2124 VRB03KT P6SM BKN070
FM211800 33010KT P6SM SCT030 RMK FCST BASED ON AUTO OBS. NXT FCST BY 211800Z
CZYZ FIR / North America



MET'MAP, your aeronautical weather chart ! - Copyright ORBIFLY December 2007 - Disclaimer

ORBIFLY MET'MAP TEAM :

Programming & Development : Alexandra Zaïnal
Concept & Development : Baudouin d'Aumeries
Co-Development & Prog : Marc-Olivier Méhu
Technical & hardware support : Manuel Goepfert

Contact : metmap@orbifly.com




SOURCES & CREDITS :

   NOAA       Earth
Advisory